Aviation Digital Data Service (ADDS)

Output produced by METARs form (0512 UTC 21 February 2018)
found at http://www.aviationweather.gov/adds/metars/
 
METAR text: ZBTJ 201500Z 20002MPS 5000 HZ NSC M01/M07 Q1028 NOSIG
Conditions at: ZBTJ (TIANJIN/ZHANGGUI, CN) observed 1500 UTC 20 February 2018
Temperature: -1.0°C (30°F)
Dewpoint: -7.0°C (19°F) [RH = 64%]
Pressure (altimeter): 30.35 inches Hg (1028.0 mb)
Winds: from the SSW (200 degrees) at 5 MPH (4 knots; 2.1 m/s)
Visibility: 3 miles (5 km)
Ceiling: at least 12,000 feet AGL
Clouds: sky clear below 12,000 feet AGL
Weather: HZ  (haze)

METAR text: ZBTJ 201430Z 21003MPS 5000 HZ NSC M01/M06 Q1028 NOSIG
Conditions at: ZBTJ (TIANJIN/ZHANGGUI, CN) observed 1430 UTC 20 February 2018
Temperature: -1.0°C (30°F)
Dewpoint: -6.0°C (21°F) [RH = 69%]
Pressure (altimeter): 30.35 inches Hg (1028.0 mb)
Winds: from the SSW (210 degrees) at 7 MPH (6 knots; 3.1 m/s)
Visibility: 3 miles (5 km)
Ceiling: at least 12,000 feet AGL
Clouds: sky clear below 12,000 feet AGL
Weather: HZ  (haze)

METAR text: ZBTJ 201400Z 21003MPS 5000 HZ NSC M01/M07 Q1028 NOSIG
Conditions at: ZBTJ (TIANJIN/ZHANGGUI, CN) observed 1400 UTC 20 February 2018
Temperature: -1.0°C (30°F)
Dewpoint: -7.0°C (19°F) [RH = 64%]
Pressure (altimeter): 30.35 inches Hg (1028.0 mb)
Winds: from the SSW (210 degrees) at 7 MPH (6 knots; 3.1 m/s)
Visibility: 3 miles (5 km)
Ceiling: at least 12,000 feet AGL
Clouds: sky clear below 12,000 feet AGL
Weather: HZ  (haze)

METAR text: ZBTJ 201330Z 21003MPS 5000 HZ NSC M00/M06 Q1028 NOSIG
Conditions at: ZBTJ (TIANJIN/ZHANGGUI, CN) observed 1330 UTC 20 February 2018
Temperature: 0.0°C (32°F)
Dewpoint: -6.0°C (21°F) [RH = 64%]
Pressure (altimeter): 30.35 inches Hg (1028.0 mb)
Winds: from the SSW (210 degrees) at 7 MPH (6 knots; 3.1 m/s)
Visibility: 3 miles (5 km)
Ceiling: at least 12,000 feet AGL
Clouds: sky clear below 12,000 feet AGL
Weather: HZ  (haze)

METAR text: ZBTJ 201300Z 21003MPS 5000 HZ NSC M01/M07 Q1028 NOSIG
Conditions at: ZBTJ (TIANJIN/ZHANGGUI, CN) observed 1300 UTC 20 February 2018
Temperature: -1.0°C (30°F)
Dewpoint: -7.0°C (19°F) [RH = 64%]
Pressure (altimeter): 30.35 inches Hg (1028.0 mb)
Winds: from the SSW (210 degrees) at 7 MPH (6 knots; 3.1 m/s)
Visibility: 3 miles (5 km)
Ceiling: at least 12,000 feet AGL
Clouds: sky clear below 12,000 feet AGL
Weather: HZ  (haze)

METAR text: ZBTJ 201230Z 20003MPS 5000 HZ NSC M01/M07 Q1028 NOSIG
Conditions at: ZBTJ (TIANJIN/ZHANGGUI, CN) observed 1230 UTC 20 February 2018
Temperature: -1.0°C (30°F)
Dewpoint: -7.0°C (19°F) [RH = 64%]
Pressure (altimeter): 30.35 inches Hg (1028.0 mb)
Winds: from the SSW (200 degrees) at 7 MPH (6 knots; 3.1 m/s)
Visibility: 3 miles (5 km)
Ceiling: at least 12,000 feet AGL
Clouds: sky clear below 12,000 feet AGL
Weather: HZ  (haze)

METAR text: ZBTJ 201200Z 21004MPS 5000 HZ NSC M00/M08 Q1027 NOSIG
Conditions at: ZBTJ (TIANJIN/ZHANGGUI, CN) observed 1200 UTC 20 February 2018
Temperature: 0.0°C (32°F)
Dewpoint: -8.0°C (18°F) [RH = 55%]
Pressure (altimeter): 30.32 inches Hg (1027.0 mb)
Winds: from the SSW (210 degrees) at 9 MPH (8 knots; 4.2 m/s)
Visibility: 3 miles (5 km)
Ceiling: at least 12,000 feet AGL
Clouds: sky clear below 12,000 feet AGL
Weather: HZ  (haze)

METAR text: ZBTJ 201130Z 19003MPS 5000 HZ NSC M01/M07 Q1027 NOSIG
Conditions at: ZBTJ (TIANJIN/ZHANGGUI, CN) observed 1130 UTC 20 February 2018
Temperature: -1.0°C (30°F)
Dewpoint: -7.0°C (19°F) [RH = 64%]
Pressure (altimeter): 30.32 inches Hg (1027.0 mb)
Winds: from the S (190 degrees) at 7 MPH (6 knots; 3.1 m/s)
Visibility: 3 miles (5 km)
Ceiling: at least 12,000 feet AGL
Clouds: sky clear below 12,000 feet AGL
Weather: HZ  (haze)

METAR text: ZBTJ 201100Z 18004MPS 5000 HZ NSC M00/M07 Q1027 NOSIG
Conditions at: ZBTJ (TIANJIN/ZHANGGUI, CN) observed 1100 UTC 20 February 2018
Temperature: 0.0°C (32°F)
Dewpoint: -7.0°C (19°F) [RH = 59%]
Pressure (altimeter): 30.32 inches Hg (1027.0 mb)
Winds: from the S (180 degrees) at 9 MPH (8 knots; 4.2 m/s)
Visibility: 3 miles (5 km)
Ceiling: at least 12,000 feet AGL
Clouds: sky clear below 12,000 feet AGL
Weather: HZ  (haze)

METAR text: ZBTJ 201030Z 17004MPS 6000 NSC M00/M08 Q1027 NOSIG
Conditions at: ZBTJ (TIANJIN/ZHANGGUI, CN) observed 1030 UTC 20 February 2018
Temperature: 0.0°C (32°F)
Dewpoint: -8.0°C (18°F) [RH = 55%]
Pressure (altimeter): 30.32 inches Hg (1027.0 mb)
Winds: from the S (170 degrees) at 9 MPH (8 knots; 4.2 m/s)
Visibility: 4 miles (6 km)
Ceiling: at least 12,000 feet AGL
Clouds: sky clear below 12,000 feet AGL
Weather: no significant weather observed at this time

METAR text: ZBTJ 201000Z 17004MPS 9000 NSC 01/M09 Q1026 NOSIG
Conditions at: ZBTJ (TIANJIN/ZHANGGUI, CN) observed 1000 UTC 20 February 2018
Temperature: 1.0°C (34°F)
Dewpoint: -9.0°C (16°F) [RH = 47%]
Pressure (altimeter): 30.30 inches Hg (1026.0 mb)
Winds: from the S (170 degrees) at 9 MPH (8 knots; 4.2 m/s)
Visibility: 6 miles (9 km)
Ceiling: at least 12,000 feet AGL
Clouds: sky clear below 12,000 feet AGL
Weather: no significant weather observed at this time

METAR text: ZBTJ 200930Z 16005MPS CAVOK 02/M12 Q1026 NOSIG
Conditions at: ZBTJ (TIANJIN/ZHANGGUI, CN) observed 0930 UTC 20 February 2018
Temperature: 2.0°C (36°F)
Dewpoint: -12.0°C (10°F) [RH = 35%]
Pressure (altimeter): 30.30 inches Hg (1026.0 mb)
Winds: from the SSE (160 degrees) at 12 MPH (10 knots; 5.2 m/s)
Visibility: 6 or more miles (10+ km)
Ceiling: ceiling and visibility are OK
Clouds: unknown
Weather: no significant weather observed at this time

METAR text: ZBTJ 200900Z VRB01MPS CAVOK 06/M16 Q1026 NOSIG
Conditions at: ZBTJ (TIANJIN/ZHANGGUI, CN) observed 0900 UTC 20 February 2018
Temperature: 6.0°C (43°F)
Dewpoint: -16.0°C (3°F) [RH = 19%]
Pressure (altimeter): 30.30 inches Hg (1026.0 mb)
Winds: variable direction winds at 2 MPH (2 knots; 1.0 m/s)
Visibility: 6 or more miles (10+ km)
Ceiling: ceiling and visibility are OK
Clouds: unknown
Weather: no significant weather observed at this time

METAR text: ZBTJ 200830Z 34003MPS 310V020 CAVOK 06/M21 Q1026 NOSIG
Conditions at: ZBTJ (TIANJIN/ZHANGGUI, CN) observed 0830 UTC 20 February 2018
Temperature: 6.0°C (43°F)
Dewpoint: -21.0°C (-6°F) [RH = 12%]
Pressure (altimeter): 30.30 inches Hg (1026.0 mb)
Winds: from the NNW (340 degrees) at 7 MPH (6 knots; 3.1 m/s)
Visibility: 6 or more miles (10+ km)
Ceiling: ceiling and visibility are OK
Clouds: unknown
Weather: no significant weather observed at this time

METAR text: ZBTJ 200800Z 34002G09MPS 280V020 CAVOK 06/M20 Q1026 NOSIG
Conditions at: ZBTJ (TIANJIN/ZHANGGUI, CN) observed 0800 UTC 20 February 2018
Temperature: 6.0°C (43°F)
Dewpoint: -20.0°C (-4°F) [RH = 13%]
Pressure (altimeter): 30.30 inches Hg (1026.0 mb)
Winds: from the NNW (340 degrees) at 5 MPH (4 knots; 2.1 m/s)
gusting to 20 MPH (17 knots; 8.8 m/s)
Visibility: 6 or more miles (10+ km)
Ceiling: ceiling and visibility are OK
Clouds: unknown
Weather: no significant weather observed at this time

METAR text: ZBTJ 200730Z VRB01MPS 8000 NSC 06/M16 Q1026 NOSIG
Conditions at: ZBTJ (TIANJIN/ZHANGGUI, CN) observed 0730 UTC 20 February 2018
Temperature: 6.0°C (43°F)
Dewpoint: -16.0°C (3°F) [RH = 19%]
Pressure (altimeter): 30.30 inches Hg (1026.0 mb)
Winds: variable direction winds at 2 MPH (2 knots; 1.0 m/s)
Visibility: 5 miles (8 km)
Ceiling: at least 12,000 feet AGL
Clouds: sky clear below 12,000 feet AGL
Weather: no significant weather observed at this time

METAR text: ZBTJ 200700Z 33002MPS 240V050 8000 NSC 06/M16 Q1026 NOSIG
Conditions at: ZBTJ (TIANJIN/ZHANGGUI, CN) observed 0700 UTC 20 February 2018
Temperature: 6.0°C (43°F)
Dewpoint: -16.0°C (3°F) [RH = 19%]
Pressure (altimeter): 30.30 inches Hg (1026.0 mb)
Winds: from the NNW (330 degrees) at 5 MPH (4 knots; 2.1 m/s)
Visibility: 5 miles (8 km)
Ceiling: at least 12,000 feet AGL
Clouds: sky clear below 12,000 feet AGL
Weather: no significant weather observed at this time

METAR text: ZBTJ 200630Z 33002MPS 260V010 8000 NSC 06/M16 Q1026 NOSIG
Conditions at: ZBTJ (TIANJIN/ZHANGGUI, CN) observed 0630 UTC 20 February 2018
Temperature: 6.0°C (43°F)
Dewpoint: -16.0°C (3°F) [RH = 19%]
Pressure (altimeter): 30.30 inches Hg (1026.0 mb)
Winds: from the NNW (330 degrees) at 5 MPH (4 knots; 2.1 m/s)
Visibility: 5 miles (8 km)
Ceiling: at least 12,000 feet AGL
Clouds: sky clear below 12,000 feet AGL
Weather: no significant weather observed at this time

METAR text: ZBTJ 200600Z VRB02MPS 8000 NSC 06/M15 Q1026 NOSIG
Conditions at: ZBTJ (TIANJIN/ZHANGGUI, CN) observed 0600 UTC 20 February 2018
Temperature: 6.0°C (43°F)
Dewpoint: -15.0°C (5°F) [RH = 20%]
Pressure (altimeter): 30.30 inches Hg (1026.0 mb)
Winds: variable direction winds at 5 MPH (4 knots; 2.1 m/s)
Visibility: 5 miles (8 km)
Ceiling: at least 12,000 feet AGL
Clouds: sky clear below 12,000 feet AGL
Weather: no significant weather observed at this time

METAR text: ZBTJ 200530Z VRB02MPS 8000 NSC 05/M15 Q1027 NOSIG
Conditions at: ZBTJ (TIANJIN/ZHANGGUI, CN) observed 0530 UTC 20 February 2018
Temperature: 5.0°C (41°F)
Dewpoint: -15.0°C (5°F) [RH = 22%]
Pressure (altimeter): 30.32 inches Hg (1027.0 mb)
Winds: variable direction winds at 5 MPH (4 knots; 2.1 m/s)
Visibility: 5 miles (8 km)
Ceiling: at least 12,000 feet AGL
Clouds: sky clear below 12,000 feet AGL
Weather: no significant weather observed at this time

METAR text: ZBTJ 200500Z 27002MPS 220V320 7000 NSC 05/M15 Q1027 NOSIG
Conditions at: ZBTJ (TIANJIN/ZHANGGUI, CN) observed 0500 UTC 20 February 2018
Temperature: 5.0°C (41°F)
Dewpoint: -15.0°C (5°F) [RH = 22%]
Pressure (altimeter): 30.32 inches Hg (1027.0 mb)
Winds: from the W (270 degrees) at 5 MPH (4 knots; 2.1 m/s)
Visibility: 4 miles (7 km)
Ceiling: at least 12,000 feet AGL
Clouds: sky clear below 12,000 feet AGL
Weather: no significant weather observed at this time

METAR text: ZBTJ 200430Z VRB01MPS 7000 NSC 05/M16 Q1028 NOSIG
Conditions at: ZBTJ (TIANJIN/ZHANGGUI, CN) observed 0430 UTC 20 February 2018
Temperature: 5.0°C (41°F)
Dewpoint: -16.0°C (3°F) [RH = 20%]
Pressure (altimeter): 30.35 inches Hg (1028.0 mb)
Winds: variable direction winds at 2 MPH (2 knots; 1.0 m/s)
Visibility: 4 miles (7 km)
Ceiling: at least 12,000 feet AGL
Clouds: sky clear below 12,000 feet AGL
Weather: no significant weather observed at this time

METAR text: ZBTJ 200400Z 12003MPS 080V170 4500 HZ NSC 04/M13 Q1029 NOSIG
Conditions at: ZBTJ (TIANJIN/ZHANGGUI, CN) observed 0400 UTC 20 February 2018
Temperature: 4.0°C (39°F)
Dewpoint: -13.0°C (9°F) [RH = 28%]
Pressure (altimeter): 30.38 inches Hg (1029.0 mb)
Winds: from the ESE (120 degrees) at 7 MPH (6 knots; 3.1 m/s)
Visibility: 2.80 miles (4.51 km)
Ceiling: at least 12,000 feet AGL
Clouds: sky clear below 12,000 feet AGL
Weather: HZ  (haze)

METAR text: ZBTJ 200330Z 06002MPS 010V130 4000 HZ NSC 04/M11 Q1029 NOSIG
Conditions at: ZBTJ (TIANJIN/ZHANGGUI, CN) observed 0330 UTC 20 February 2018
Temperature: 4.0°C (39°F)
Dewpoint: -11.0°C (12°F) [RH = 32%]
Pressure (altimeter): 30.38 inches Hg (1029.0 mb)
Winds: from the ENE (60 degrees) at 5 MPH (4 knots; 2.1 m/s)
Visibility: 2.49 miles (4.01 km)
Ceiling: at least 12,000 feet AGL
Clouds: sky clear below 12,000 feet AGL
Weather: HZ  (haze)

METAR text: ZBTJ 200300Z 03002MPS 340V080 3000 HZ NSC 03/M10 Q1029 NOSIG
Conditions at: ZBTJ (TIANJIN/ZHANGGUI, CN) observed 0300 UTC 20 February 2018
Temperature: 3.0°C (37°F)
Dewpoint: -10.0°C (14°F) [RH = 38%]
Pressure (altimeter): 30.38 inches Hg (1029.0 mb)
Winds: from the NNE (30 degrees) at 5 MPH (4 knots; 2.1 m/s)
Visibility: 1.86 miles (2.99 km)
Ceiling: at least 12,000 feet AGL
Clouds: sky clear below 12,000 feet AGL
Weather: HZ  (haze)

METAR text: ZBTJ 200230Z 02002MPS 340V060 2800 HZ NSC 03/M07 Q1030 BECMG TL0330 3000
Conditions at: ZBTJ (TIANJIN/ZHANGGUI, CN) observed 0230 UTC 20 February 2018
Temperature: 3.0°C (37°F)
Dewpoint: -7.0°C (19°F) [RH = 48%]
Pressure (altimeter): 30.41 inches Hg (1030.0 mb)
Winds: from the NNE (20 degrees) at 5 MPH (4 knots; 2.1 m/s)
Visibility: 1.74 miles (2.80 km)
Ceiling: at least 12,000 feet AGL
Clouds: sky clear below 12,000 feet AGL
Weather: HZ  (haze)

METAR text: ZBTJ 200200Z 01002MPS 2200 HZ NSC 02/M06 Q1030 BECMG TL0330 3000
Conditions at: ZBTJ (TIANJIN/ZHANGGUI, CN) observed 0200 UTC 20 February 2018
Temperature: 2.0°C (36°F)
Dewpoint: -6.0°C (21°F) [RH = 55%]
Pressure (altimeter): 30.41 inches Hg (1030.0 mb)
Winds: from the N (10 degrees) at 5 MPH (4 knots; 2.1 m/s)
Visibility: 1.37 miles (2.20 km)
Ceiling: at least 12,000 feet AGL
Clouds: sky clear below 12,000 feet AGL
Weather: HZ  (haze)

METAR text: ZBTJ 200130Z 01003MPS 1800 HZ NSC 01/M04 Q1029 NOSIG
Conditions at: ZBTJ (TIANJIN/ZHANGGUI, CN) observed 0130 UTC 20 February 2018
Temperature: 1.0°C (34°F)
Dewpoint: -4.0°C (25°F) [RH = 69%]
Pressure (altimeter): 30.38 inches Hg (1029.0 mb)
Winds: from the N (10 degrees) at 7 MPH (6 knots; 3.1 m/s)
Visibility: 1.12 miles (1.80 km)
Ceiling: at least 12,000 feet AGL
Clouds: sky clear below 12,000 feet AGL
Weather: HZ  (haze)

METAR text: ZBTJ 200100Z VRB01MPS 2000 HZ NSC M00/M05 Q1029 BECMG TL0230 36005MPS 3000
Conditions at: ZBTJ (TIANJIN/ZHANGGUI, CN) observed 0100 UTC 20 February 2018
Temperature: 0.0°C (32°F)
Dewpoint: -5.0°C (23°F) [RH = 69%]
Pressure (altimeter): 30.38 inches Hg (1029.0 mb)
Winds: variable direction winds at 2 MPH (2 knots; 1.0 m/s)
Visibility: 1.24 miles (2.00 km)
Ceiling: at least 12,000 feet AGL
Clouds: sky clear below 12,000 feet AGL
Weather: HZ  (haze)

METAR text: ZBTJ 200030Z 34003MPS 2000 BR NSC M02/M05 Q1029 NOSIG
Conditions at: ZBTJ (TIANJIN/ZHANGGUI, CN) observed 0030 UTC 20 February 2018
Temperature: -2.0°C (28°F)
Dewpoint: -5.0°C (23°F) [RH = 80%]
Pressure (altimeter): 30.38 inches Hg (1029.0 mb)
Winds: from the NNW (340 degrees) at 7 MPH (6 knots; 3.1 m/s)
Visibility: 1.24 miles (2.00 km)
Ceiling: at least 12,000 feet AGL
Clouds: sky clear below 12,000 feet AGL
Weather: BR  (mist)

METAR text: ZBTJ 200000Z VRB01MPS 2200 BR NSC M02/M06 Q1029 BECMG TL0130 3000
Conditions at: ZBTJ (TIANJIN/ZHANGGUI, CN) observed 0000 UTC 20 February 2018
Temperature: -2.0°C (28°F)
Dewpoint: -6.0°C (21°F) [RH = 74%]
Pressure (altimeter): 30.38 inches Hg (1029.0 mb)
Winds: variable direction winds at 2 MPH (2 knots; 1.0 m/s)
Visibility: 1.37 miles (2.20 km)
Ceiling: at least 12,000 feet AGL
Clouds: sky clear below 12,000 feet AGL
Weather: BR  (mist)

METAR text: ZBTJ 192330Z 33002MPS 2000 BR NSC M04/M07 Q1029 NOSIG
Conditions at: ZBTJ (TIANJIN/ZHANGGUI, CN) observed 2330 UTC 19 February 2018
Temperature: -4.0°C (25°F)
Dewpoint: -7.0°C (19°F) [RH = 80%]
Pressure (altimeter): 30.38 inches Hg (1029.0 mb)
Winds: from the NNW (330 degrees) at 5 MPH (4 knots; 2.1 m/s)
Visibility: 1.24 miles (2.00 km)
Ceiling: at least 12,000 feet AGL
Clouds: sky clear below 12,000 feet AGL
Weather: BR  (mist)

METAR text: ZBTJ 192300Z VRB01MPS 2000 BR NSC M03/M06 Q1028 NOSIG
Conditions at: ZBTJ (TIANJIN/ZHANGGUI, CN) observed 2300 UTC 19 February 2018
Temperature: -3.0°C (27°F)
Dewpoint: -6.0°C (21°F) [RH = 80%]
Pressure (altimeter): 30.35 inches Hg (1028.0 mb)
Winds: variable direction winds at 2 MPH (2 knots; 1.0 m/s)
Visibility: 1.24 miles (2.00 km)
Ceiling: at least 12,000 feet AGL
Clouds: sky clear below 12,000 feet AGL
Weather: BR  (mist)

METAR text: ZBTJ 192230Z 32001MPS 2000 BR NSC M04/M06 Q1028 NOSIG
Conditions at: ZBTJ (TIANJIN/ZHANGGUI, CN) observed 2230 UTC 19 February 2018
Temperature: -4.0°C (25°F)
Dewpoint: -6.0°C (21°F) [RH = 86%]
Pressure (altimeter): 30.35 inches Hg (1028.0 mb)
Winds: from the NW (320 degrees) at 2 MPH (2 knots; 1.0 m/s)
Visibility: 1.24 miles (2.00 km)
Ceiling: at least 12,000 feet AGL
Clouds: sky clear below 12,000 feet AGL
Weather: BR  (mist)

METAR text: ZBTJ 192200Z 34004MPS 2000 BR NSC M04/M06 Q1028 NOSIG
Conditions at: ZBTJ (TIANJIN/ZHANGGUI, CN) observed 2200 UTC 19 February 2018
Temperature: -4.0°C (25°F)
Dewpoint: -6.0°C (21°F) [RH = 86%]
Pressure (altimeter): 30.35 inches Hg (1028.0 mb)
Winds: from the NNW (340 degrees) at 9 MPH (8 knots; 4.2 m/s)
Visibility: 1.24 miles (2.00 km)
Ceiling: at least 12,000 feet AGL
Clouds: sky clear below 12,000 feet AGL
Weather: BR  (mist)

METAR text: ZBTJ 192130Z VRB01MPS 2200 BR NSC M03/M06 Q1027 NOSIG
Conditions at: ZBTJ (TIANJIN/ZHANGGUI, CN) observed 2130 UTC 19 February 2018
Temperature: -3.0°C (27°F)
Dewpoint: -6.0°C (21°F) [RH = 80%]
Pressure (altimeter): 30.32 inches Hg (1027.0 mb)
Winds: variable direction winds at 2 MPH (2 knots; 1.0 m/s)
Visibility: 1.37 miles (2.20 km)
Ceiling: at least 12,000 feet AGL
Clouds: sky clear below 12,000 feet AGL
Weather: BR  (mist)

METAR text: ZBTJ 192100Z 35003MPS 2200 BR NSC M04/M07 Q1027 NOSIG
Conditions at: ZBTJ (TIANJIN/ZHANGGUI, CN) observed 2100 UTC 19 February 2018
Temperature: -4.0°C (25°F)
Dewpoint: -7.0°C (19°F) [RH = 80%]
Pressure (altimeter): 30.32 inches Hg (1027.0 mb)
Winds: from the N (350 degrees) at 7 MPH (6 knots; 3.1 m/s)
Visibility: 1.37 miles (2.20 km)
Ceiling: at least 12,000 feet AGL
Clouds: sky clear below 12,000 feet AGL
Weather: BR  (mist)

METAR text: ZBTJ 192030Z 33001MPS 2200 BR NSC M02/M05 Q1027 NOSIG
Conditions at: ZBTJ (TIANJIN/ZHANGGUI, CN) observed 2030 UTC 19 February 2018
Temperature: -2.0°C (28°F)
Dewpoint: -5.0°C (23°F) [RH = 80%]
Pressure (altimeter): 30.32 inches Hg (1027.0 mb)
Winds: from the NNW (330 degrees) at 2 MPH (2 knots; 1.0 m/s)
Visibility: 1.37 miles (2.20 km)
Ceiling: at least 12,000 feet AGL
Clouds: sky clear below 12,000 feet AGL
Weather: BR  (mist)

METAR text: ZBTJ 192000Z 34002MPS 310V030 2200 BR NSC M02/M05 Q1027 NOSIG
Conditions at: ZBTJ (TIANJIN/ZHANGGUI, CN) observed 2000 UTC 19 February 2018
Temperature: -2.0°C (28°F)
Dewpoint: -5.0°C (23°F) [RH = 80%]
Pressure (altimeter): 30.32 inches Hg (1027.0 mb)
Winds: from the NNW (340 degrees) at 5 MPH (4 knots; 2.1 m/s)
Visibility: 1.37 miles (2.20 km)
Ceiling: at least 12,000 feet AGL
Clouds: sky clear below 12,000 feet AGL
Weather: BR  (mist)

METAR text: ZBTJ 191930Z 03003MPS 2200 BR NSC M02/M05 Q1026 NOSIG
Conditions at: ZBTJ (TIANJIN/ZHANGGUI, CN) observed 1930 UTC 19 February 2018
Temperature: -2.0°C (28°F)
Dewpoint: -5.0°C (23°F) [RH = 80%]
Pressure (altimeter): 30.30 inches Hg (1026.0 mb)
Winds: from the NNE (30 degrees) at 7 MPH (6 knots; 3.1 m/s)
Visibility: 1.37 miles (2.20 km)
Ceiling: at least 12,000 feet AGL
Clouds: sky clear below 12,000 feet AGL
Weather: BR  (mist)

METAR text: ZBTJ 191900Z 07002MPS 2000 BR OVC040 M02/M05 Q1026 NOSIG
Conditions at: ZBTJ (TIANJIN/ZHANGGUI, CN) observed 1900 UTC 19 February 2018
Temperature: -2.0°C (28°F)
Dewpoint: -5.0°C (23°F) [RH = 80%]
Pressure (altimeter): 30.30 inches Hg (1026.0 mb)
Winds: from the ENE (70 degrees) at 5 MPH (4 knots; 2.1 m/s)
Visibility: 1.24 miles (2.00 km)
Ceiling: 4000 feet AGL
Clouds: overcast cloud deck at 4000 feet AGL
Weather: BR  (mist)

METAR text: ZBTJ 191830Z 07003MPS 2000 BR OVC016 M02/M04 Q1026 NOSIG
Conditions at: ZBTJ (TIANJIN/ZHANGGUI, CN) observed 1830 UTC 19 February 2018
Temperature: -2.0°C (28°F)
Dewpoint: -4.0°C (25°F) [RH = 86%]
Pressure (altimeter): 30.30 inches Hg (1026.0 mb)
Winds: from the ENE (70 degrees) at 7 MPH (6 knots; 3.1 m/s)
Visibility: 1.24 miles (2.00 km)
Ceiling: 1600 feet AGL
Clouds: overcast cloud deck at 1600 feet AGL
Weather: BR  (mist)

METAR text: ZBTJ 191800Z 08004MPS 2000 BR OVC013 M02/M04 Q1026 NOSIG
Conditions at: ZBTJ (TIANJIN/ZHANGGUI, CN) observed 1800 UTC 19 February 2018
Temperature: -2.0°C (28°F)
Dewpoint: -4.0°C (25°F) [RH = 86%]
Pressure (altimeter): 30.30 inches Hg (1026.0 mb)
Winds: from the E (80 degrees) at 9 MPH (8 knots; 4.2 m/s)
Visibility: 1.24 miles (2.00 km)
Ceiling: 1300 feet AGL
Clouds: overcast cloud deck at 1300 feet AGL
Weather: BR  (mist)

METAR text: ZBTJ 191730Z 07003MPS 2000 BR OVC009 M02/M03 Q1026 NOSIG
Conditions at: ZBTJ (TIANJIN/ZHANGGUI, CN) observed 1730 UTC 19 February 2018
Temperature: -2.0°C (28°F)
Dewpoint: -3.0°C (27°F) [RH = 93%]
Pressure (altimeter): 30.30 inches Hg (1026.0 mb)
Winds: from the ENE (70 degrees) at 7 MPH (6 knots; 3.1 m/s)
Visibility: 1.24 miles (2.00 km)
Ceiling: 900 feet AGL
Clouds: overcast cloud deck at 900 feet AGL
Weather: BR  (mist)